createdAt,value
2023-01-17T00:01:39.662Z,76.50
2023-01-17T00:04:53.021Z,76.00
2023-01-17T00:08:06.118Z,75.20
2023-01-17T00:11:04.465Z,76.60
2023-01-17T00:14:02.196Z,78.00
2023-01-17T00:17:01.849Z,76.90
2023-01-17T00:20:15.034Z,77.20
2023-01-17T00:27:00.883Z,79.50
2023-01-17T00:29:58.742Z,77.40
2023-01-17T00:32:56.644Z,75.90
2023-01-17T00:35:56.712Z,76.30
2023-01-17T00:38:54.490Z,74.60
2023-01-17T00:41:52.154Z,75.40
2023-01-17T00:45:05.290Z,75.60
2023-01-17T00:48:18.461Z,76.30
2023-01-17T00:51:32.337Z,76.20
2023-01-17T00:54:45.468Z,74.80
2023-01-17T00:57:58.924Z,73.60
2023-01-17T01:01:12.104Z,73.60
2023-01-17T01:04:25.356Z,73.00
2023-01-17T01:07:38.399Z,73.80
2023-01-17T01:10:52.501Z,74.30
2023-01-17T01:14:05.737Z,74.20
2023-01-17T01:17:19.022Z,74.30
2023-01-17T01:20:32.292Z,75.30
2023-01-17T01:23:45.922Z,74.90
2023-01-17T01:27:03.596Z,74.40
2023-01-17T01:30:17.366Z,75.70
2023-01-17T01:33:19.154Z,75.60
2023-01-17T01:36:17.051Z,76.20
2023-01-17T01:39:14.805Z,77.00
2023-01-17T01:42:17.163Z,77.90
2023-01-17T01:45:21.799Z,78.20
2023-01-17T01:48:38.735Z,78.00
2023-01-17T01:51:43.364Z,78.10
2023-01-17T01:54:47.992Z,78.60
2023-01-17T01:57:51.512Z,78.70
2023-01-17T02:00:49.842Z,78.10
2023-01-17T02:03:48.277Z,78.90
2023-01-17T02:06:52.245Z,78.60
2023-01-17T02:09:50.662Z,80.20
2023-01-17T02:12:49.713Z,78.70
2023-01-17T02:16:02.250Z,79.40
2023-01-17T02:19:27.478Z,77.70
2023-01-17T02:22:51.340Z,77.80
2023-01-17T02:26:24.533Z,78.60
2023-01-17T02:30:00.237Z,77.80
2023-01-17T02:33:20.008Z,77.90
2023-01-17T02:36:26.777Z,79.10
2023-01-17T02:39:33.483Z,78.40
2023-01-17T02:42:38.400Z,77.90
2023-01-17T02:45:36.263Z,77.90
2023-01-17T02:48:37.405Z,78.40
2023-01-17T02:52:11.377Z,78.30
2023-01-17T02:55:44.190Z,76.60
2023-01-17T02:59:07.276Z,76.30
2023-01-17T03:02:18.731Z,78.40
2023-01-17T03:05:38.709Z,77.30
2023-01-17T03:08:36.467Z,76.60
2023-01-17T03:11:34.907Z,77.30
2023-01-17T03:14:32.760Z,76.10
2023-01-17T03:17:33.712Z,77.10
2023-01-17T03:20:31.468Z,76.70
2023-01-17T03:23:29.317Z,76.30
2023-01-17T03:26:27.118Z,75.80
2023-01-17T03:29:25.222Z,76.10
2023-01-17T03:32:22.961Z,76.40
2023-01-17T03:35:21.118Z,75.30
2023-01-17T03:38:19.926Z,74.70
2023-01-17T03:41:17.763Z,73.70
2023-01-17T03:44:15.575Z,74.30
2023-01-17T03:47:13.580Z,74.20
2023-01-17T03:50:13.597Z,74.40
2023-01-17T03:53:11.468Z,74.40
2023-01-17T03:56:09.822Z,74.10
2023-01-17T03:59:07.637Z,73.20
2023-01-17T04:02:05.469Z,73.40
2023-01-17T04:05:03.628Z,73.60
2023-01-17T04:08:01.846Z,73.50
2023-01-17T04:10:59.708Z,72.20
2023-01-17T04:13:57.412Z,72.00
2023-01-17T04:16:55.978Z,71.70
2023-01-17T04:19:53.980Z,69.60
2023-01-17T04:22:51.790Z,67.80
2023-01-17T04:25:49.524Z,67.60
2023-01-17T04:28:47.465Z,68.30
2023-01-17T04:31:45.230Z,68.20
2023-01-17T04:34:43.482Z,67.30
2023-01-17T04:37:41.300Z,66.30
2023-01-17T04:40:39.227Z,66.40
2023-01-17T04:43:37.861Z,66.80
2023-01-17T04:46:35.769Z,67.70
2023-01-17T04:49:34.527Z,66.90
2023-01-17T04:52:32.456Z,64.20
2023-01-17T04:55:30.248Z,65.30
2023-01-17T04:58:28.269Z,64.30
2023-01-17T05:01:26.278Z,64.00
2023-01-17T05:04:24.394Z,63.20
2023-01-17T05:07:22.113Z,62.00
2023-01-17T05:10:19.949Z,62.60
2023-01-17T05:13:18.044Z,61.10
2023-01-17T05:16:19.470Z,60.70
2023-01-17T05:19:17.601Z,60.20
2023-01-17T05:22:16.637Z,60.80
2023-01-17T05:25:14.602Z,60.70
2023-01-17T05:28:13.781Z,61.20
2023-01-17T05:31:11.702Z,61.50
2023-01-17T05:34:09.654Z,61.90
2023-01-17T05:37:07.383Z,62.40
2023-01-17T05:40:06.735Z,62.40
2023-01-17T05:43:05.230Z,62.00
2023-01-17T05:46:03.168Z,61.60
2023-01-17T05:49:00.880Z,61.70
2023-01-17T05:51:59.024Z,61.20
2023-01-17T05:54:56.705Z,60.00
2023-01-17T05:57:55.345Z,59.50
2023-01-17T06:00:55.695Z,60.20
2023-01-17T06:03:53.552Z,58.70
2023-01-17T06:06:51.434Z,57.90
2023-01-17T06:09:49.268Z,58.60
2023-01-17T06:12:47.846Z,58.60
2023-01-17T06:15:45.688Z,58.90
2023-01-17T06:18:43.634Z,59.00
2023-01-17T06:21:41.436Z,57.80
2023-01-17T06:24:39.304Z,56.70
2023-01-17T06:27:37.141Z,57.00
2023-01-17T06:30:35.299Z,56.40
2023-01-17T06:33:33.170Z,56.80
2023-01-17T06:36:32.891Z,56.50
2023-01-17T06:39:30.689Z,57.00
2023-01-17T06:42:28.390Z,55.40
2023-01-17T06:45:26.458Z,57.00
2023-01-17T06:48:24.191Z,57.20
2023-01-17T06:51:22.141Z,57.60
2023-01-17T06:54:23.174Z,55.50
2023-01-17T06:57:21.087Z,56.50
2023-01-17T07:00:19.195Z,54.50
2023-01-17T07:03:27.633Z,56.00
2023-01-17T07:06:29.252Z,55.30
2023-01-17T07:09:27.059Z,55.60
2023-01-17T07:12:25.194Z,53.90
2023-01-17T07:15:22.987Z,54.90
2023-01-17T07:18:23.633Z,54.70
2023-01-17T07:21:21.480Z,54.30
2023-01-17T07:24:20.363Z,55.70
2023-01-17T07:27:18.431Z,55.80
2023-01-17T07:30:16.652Z,55.40
2023-01-17T07:33:15.088Z,56.40
2023-01-17T07:36:13.847Z,57.40
2023-01-17T07:39:11.870Z,55.70
2023-01-17T07:42:09.649Z,57.00
2023-01-17T07:45:08.243Z,56.90
2023-01-17T07:48:05.984Z,58.90
2023-01-17T07:51:03.837Z,60.20
2023-01-17T07:54:01.630Z,59.30
2023-01-17T07:57:00.521Z,60.20
2023-01-17T07:59:58.275Z,59.80
2023-01-17T08:03:00.302Z,58.30
2023-01-17T08:05:58.205Z,57.50
2023-01-17T08:08:59.351Z,57.30
2023-01-17T08:11:57.080Z,57.60
2023-01-17T08:14:54.922Z,58.40
2023-01-17T08:17:54.374Z,57.90
2023-01-17T08:20:52.285Z,57.20
2023-01-17T08:23:50.972Z,57.20
2023-01-17T08:26:48.828Z,57.30
2023-01-17T08:29:48.802Z,57.50
2023-01-17T08:32:46.721Z,57.20
2023-01-17T08:36:02.651Z,58.00
2023-01-17T08:39:00.571Z,56.60
2023-01-17T08:41:58.261Z,56.90
2023-01-17T08:44:56.060Z,57.70
2023-01-17T08:47:54.166Z,57.00
2023-01-17T08:50:52.286Z,57.80
2023-01-17T08:53:49.979Z,57.20
2023-01-17T08:56:48.357Z,56.80
2023-01-17T08:59:46.159Z,57.20
2023-01-17T09:02:44.067Z,56.40
2023-01-17T09:05:41.847Z,56.60
2023-01-17T09:08:40.566Z,56.70
2023-01-17T09:11:39.280Z,56.60
2023-01-17T09:14:38.352Z,58.10
2023-01-17T09:17:36.137Z,57.90
2023-01-17T09:20:33.929Z,57.30
2023-01-17T09:23:31.630Z,56.80
2023-01-17T09:26:30.553Z,55.40
2023-01-17T09:29:29.040Z,55.90
2023-01-17T09:32:26.905Z,56.40
2023-01-17T09:35:24.806Z,56.30
2023-01-17T09:38:24.457Z,55.60
2023-01-17T09:41:29.139Z,56.80
2023-01-17T09:44:39.455Z,57.20
2023-01-17T09:47:47.298Z,57.10
2023-01-17T09:50:51.199Z,56.70
2023-01-17T09:53:49.637Z,56.70
2023-01-17T09:56:55.816Z,55.00
2023-01-17T10:00:08.805Z,56.00
2023-01-17T10:03:28.381Z,57.10
2023-01-17T10:06:55.382Z,56.60
2023-01-17T10:10:16.183Z,55.10
2023-01-17T10:13:42.423Z,55.70
2023-01-17T10:16:58.808Z,56.20
2023-01-17T10:20:18.422Z,56.40
2023-01-17T10:23:38.445Z,57.50
2023-01-17T10:26:37.359Z,56.20
2023-01-17T10:29:36.658Z,58.50
2023-01-17T10:32:36.196Z,60.60
2023-01-17T10:35:37.759Z,59.70
2023-01-17T10:38:41.003Z,60.10
2023-01-17T10:41:43.023Z,60.10
2023-01-17T10:45:06.414Z,63.00
2023-01-17T10:48:26.765Z,62.20
2023-01-17T10:51:44.967Z,61.60
2023-01-17T10:55:04.520Z,60.20
2023-01-17T10:58:03.532Z,63.00
2023-01-17T11:01:06.797Z,62.60
2023-01-17T11:04:12.332Z,62.30
2023-01-17T11:07:14.297Z,62.70
2023-01-17T11:10:40.911Z,63.60
2023-01-17T11:13:40.077Z,64.20
2023-01-17T11:16:38.349Z,66.10
2023-01-17T11:19:39.072Z,66.90
2023-01-17T11:22:37.990Z,66.90
2023-01-17T11:25:36.929Z,67.10
2023-01-17T11:28:36.721Z,66.20
2023-01-17T11:31:34.569Z,68.50
2023-01-17T11:34:34.054Z,67.50
2023-01-17T11:37:31.933Z,67.30
2023-01-17T11:40:38.333Z,67.00
2023-01-17T11:43:52.162Z,66.30
2023-01-17T11:47:08.923Z,66.10
2023-01-17T11:50:27.474Z,66.10
2023-01-17T11:53:41.371Z,64.40
2023-01-17T11:56:41.314Z,64.00
2023-01-17T11:59:43.733Z,65.60
2023-01-17T12:03:02.248Z,66.40
2023-01-17T12:06:13.515Z,67.20
2023-01-17T12:09:36.295Z,67.70
2023-01-17T12:13:05.939Z,67.50
2023-01-17T12:16:34.017Z,66.80
2023-01-17T12:19:55.093Z,67.80
2023-01-17T12:23:22.112Z,66.80
2023-01-17T12:26:31.480Z,67.30
2023-01-17T12:29:54.156Z,67.40
2023-01-17T12:33:15.613Z,68.50
2023-01-17T12:36:49.609Z,68.40
2023-01-17T12:39:57.897Z,69.10
2023-01-17T12:43:06.642Z,69.10
2023-01-17T12:46:34.307Z,68.30
2023-01-17T12:50:07.344Z,68.90
2023-01-17T12:53:31.566Z,69.00
2023-01-17T12:56:39.031Z,68.90
2023-01-17T12:59:57.085Z,70.10
2023-01-17T13:03:15.008Z,69.10
2023-01-17T13:06:24.887Z,68.80
2023-01-17T13:09:24.437Z,69.30
2023-01-17T13:12:23.243Z,70.20
2023-01-17T13:15:26.261Z,70.90
2023-01-17T13:18:30.065Z,70.50
2023-01-17T13:21:30.979Z,70.20
2023-01-17T13:24:51.792Z,70.80
2023-01-17T13:28:14.953Z,69.70
2023-01-17T13:31:36.944Z,70.00
2023-01-17T13:34:57.371Z,70.20
2023-01-17T13:38:11.524Z,70.60
2023-01-17T13:41:49.414Z,70.10
2023-01-17T13:44:47.533Z,70.20
2023-01-17T13:47:48.882Z,69.50
2023-01-17T13:50:51.319Z,69.50
2023-01-17T13:53:49.226Z,70.70
2023-01-17T13:56:48.072Z,72.00
2023-01-17T13:59:45.891Z,72.10
2023-01-17T14:02:46.452Z,73.10
2023-01-17T14:05:50.165Z,72.70
2023-01-17T14:08:49.475Z,74.20
2023-01-17T14:12:22.478Z,74.40
2023-01-17T14:15:25.435Z,72.80
2023-01-17T14:18:41.521Z,74.30
2023-01-17T14:21:39.277Z,73.20
2023-01-17T14:25:00.839Z,74.70
2023-01-17T14:28:03.768Z,74.70
2023-01-17T14:31:08.966Z,75.80
2023-01-17T14:34:14.544Z,76.60
2023-01-17T14:37:33.995Z,77.40
2023-01-17T14:40:36.326Z,78.30
2023-01-17T14:43:38.433Z,78.00
2023-01-17T14:46:36.544Z,77.90
2023-01-17T14:49:35.414Z,76.50
2023-01-17T14:52:33.380Z,77.00
2023-01-17T14:55:36.901Z,77.10
2023-01-17T14:58:36.904Z,76.70
2023-01-17T15:01:37.190Z,76.60
2023-01-17T15:04:40.038Z,75.30
2023-01-17T15:07:44.639Z,76.70
2023-01-17T15:10:55.004Z,76.00
2023-01-17T15:13:57.884Z,75.50
2023-01-17T15:16:58.880Z,75.20
2023-01-17T15:20:07.411Z,75.10
2023-01-17T15:23:05.786Z,74.70
2023-01-17T15:26:05.280Z,75.00
2023-01-17T15:29:09.808Z,75.50
2023-01-17T15:32:20.519Z,76.00
2023-01-17T15:35:19.574Z,75.50
2023-01-17T15:38:17.697Z,75.10
2023-01-17T15:41:17.600Z,75.30
2023-01-17T15:44:46.417Z,75.00
2023-01-17T15:47:45.808Z,74.60
2023-01-17T15:50:48.182Z,74.00
2023-01-17T15:53:45.930Z,74.60
2023-01-17T15:56:46.078Z,74.80
2023-01-17T15:59:51.941Z,75.00
2023-01-17T16:02:56.231Z,74.40
2023-01-17T16:05:57.375Z,74.20
2023-01-17T16:08:55.666Z,74.20
2023-01-17T16:11:55.665Z,74.50
2023-01-17T16:15:11.328Z,73.20
2023-01-17T16:18:24.861Z,73.50
2023-01-17T16:21:26.784Z,74.00
2023-01-17T16:24:25.971Z,74.30
2023-01-17T16:27:25.485Z,73.80
2023-01-17T16:30:23.208Z,73.40
2023-01-17T16:33:21.424Z,72.60
2023-01-17T16:36:21.861Z,73.00
2023-01-17T16:39:20.302Z,73.10
2023-01-17T16:42:18.377Z,72.80
2023-01-17T16:45:17.263Z,73.80
2023-01-17T16:48:19.231Z,73.90
2023-01-17T16:51:17.653Z,73.40
2023-01-17T16:54:17.130Z,71.70
2023-01-17T16:57:16.184Z,74.00
2023-01-17T17:00:14.408Z,76.40
2023-01-17T17:03:21.786Z,76.00
2023-01-17T17:06:20.545Z,77.00
2023-01-17T17:09:21.553Z,74.70
2023-01-17T17:12:19.396Z,74.50
2023-01-17T17:15:23.487Z,74.80
2023-01-17T17:18:21.873Z,74.90
2023-01-17T17:21:20.006Z,75.40
2023-01-17T17:24:18.090Z,74.90
2023-01-17T17:27:16.189Z,75.20
2023-01-17T17:30:14.553Z,74.60
2023-01-17T17:33:12.592Z,73.90
2023-01-17T17:36:10.689Z,74.80
2023-01-17T17:39:12.666Z,73.70
2023-01-17T17:42:11.824Z,77.30
2023-01-17T17:45:10.525Z,78.10
2023-01-17T17:48:08.404Z,75.60
2023-01-17T17:51:07.011Z,74.40
2023-01-17T17:54:10.059Z,73.60
2023-01-17T17:57:08.213Z,72.70
2023-01-17T18:00:07.145Z,72.80
2023-01-17T18:03:05.150Z,73.30
2023-01-17T18:06:04.922Z,72.30
2023-01-17T18:09:03.922Z,72.90
2023-01-17T18:12:03.332Z,73.00
2023-01-17T18:15:01.140Z,72.20
2023-01-17T18:17:59.467Z,73.90
2023-01-17T18:21:06.885Z,73.60
2023-01-17T18:24:09.076Z,73.40
2023-01-17T18:27:07.064Z,73.20
2023-01-17T18:30:05.191Z,73.00
2023-01-17T18:33:03.088Z,72.20
2023-01-17T18:36:02.707Z,73.50
2023-01-17T18:39:03.227Z,72.60
2023-01-17T18:42:01.253Z,71.50
2023-01-17T18:44:59.123Z,72.10
2023-01-17T18:47:57.015Z,71.60
2023-01-17T18:50:57.657Z,72.20
2023-01-17T18:53:55.367Z,72.50
2023-01-17T18:56:55.849Z,73.00
2023-01-17T18:59:54.118Z,73.40
2023-01-17T19:02:52.093Z,74.90
2023-01-17T19:05:50.040Z,74.40
2023-01-17T19:08:50.091Z,74.60
2023-01-17T19:11:47.948Z,75.50
2023-01-17T19:14:45.864Z,73.60
2023-01-17T19:17:43.567Z,73.30
2023-01-17T19:20:41.433Z,75.00
2023-01-17T19:23:39.972Z,76.60
2023-01-17T19:26:38.085Z,76.30
2023-01-17T19:29:36.726Z,74.10
2023-01-17T19:32:34.894Z,73.60
2023-01-17T19:35:32.923Z,74.80
2023-01-17T19:38:32.423Z,76.60
2023-01-17T19:41:31.152Z,76.90
2023-01-17T19:44:29.098Z,75.10
2023-01-17T19:47:26.826Z,75.10
2023-01-17T19:50:24.869Z,77.30
2023-01-17T19:53:23.966Z,77.70
2023-01-17T19:56:25.136Z,78.20
2023-01-17T19:59:24.022Z,77.60
2023-01-17T20:02:22.098Z,76.40
2023-01-17T20:05:20.071Z,75.80
2023-01-17T20:08:18.608Z,75.80
2023-01-17T20:11:20.001Z,76.40
2023-01-17T20:14:18.108Z,76.20
2023-01-17T20:17:16.098Z,76.00
2023-01-17T20:20:14.179Z,73.80
2023-01-17T20:23:12.041Z,75.70
2023-01-17T20:26:12.721Z,74.70
2023-01-17T20:29:15.534Z,74.30
2023-01-17T20:32:13.602Z,74.90
2023-01-17T20:35:13.320Z,74.30
2023-01-17T20:38:12.395Z,73.40
2023-01-17T20:41:27.350Z,74.20
2023-01-17T20:44:25.308Z,73.60
2023-01-17T20:47:23.385Z,73.90
2023-01-17T20:50:21.675Z,73.20
2023-01-17T20:53:22.162Z,73.50
2023-01-17T20:56:20.763Z,72.90
2023-01-17T20:59:21.982Z,73.30
2023-01-17T21:02:23.022Z,74.10
2023-01-17T21:05:21.060Z,74.10
2023-01-17T21:08:19.283Z,73.30
2023-01-17T21:11:20.034Z,74.40
2023-01-17T21:17:50.529Z,72.70
2023-01-17T21:20:49.139Z,71.80
2023-01-17T21:23:47.089Z,72.10
2023-01-17T21:26:46.408Z,74.00
2023-01-17T21:29:44.247Z,76.30
2023-01-17T21:32:42.289Z,76.70
2023-01-17T21:35:40.044Z,76.40
2023-01-17T21:38:39.411Z,75.90
2023-01-17T21:41:40.038Z,73.50
2023-01-17T21:44:38.706Z,74.50
2023-01-17T21:47:36.803Z,74.20
2023-01-17T21:50:35.339Z,73.80
2023-01-17T21:53:35.258Z,74.20
2023-01-17T21:56:48.524Z,74.80
2023-01-17T21:59:46.299Z,73.90
2023-01-17T22:02:49.348Z,72.40
2023-01-17T22:05:49.947Z,73.20
2023-01-17T22:08:48.285Z,73.00
2023-01-17T22:11:46.179Z,72.80
2023-01-17T22:14:44.146Z,73.50
2023-01-17T22:17:42.853Z,73.90
2023-01-17T22:20:42.001Z,73.60
2023-01-17T22:23:40.702Z,73.60
2023-01-17T22:26:41.744Z,73.60
2023-01-17T22:29:39.672Z,73.50
2023-01-17T22:32:37.642Z,74.30
2023-01-17T22:35:35.386Z,73.70
2023-01-17T22:38:34.333Z,73.50
2023-01-17T22:41:33.337Z,73.70
2023-01-17T22:44:31.258Z,73.90
2023-01-17T22:47:29.013Z,73.40
2023-01-17T22:50:26.882Z,74.00
2023-01-17T22:53:24.927Z,74.10
2023-01-17T22:56:25.276Z,74.10
2023-01-17T22:59:23.103Z,74.50
2023-01-17T23:02:21.096Z,74.90
2023-01-17T23:05:26.747Z,75.20
2023-01-17T23:08:24.573Z,74.30
2023-01-17T23:11:45.144Z,73.80
2023-01-17T23:14:58.285Z,73.70
2023-01-17T23:18:11.171Z,73.20
2023-01-17T23:21:09.309Z,73.70
2023-01-17T23:24:07.500Z,74.50
2023-01-17T23:27:20.690Z,75.20
2023-01-17T23:30:21.228Z,74.60
2023-01-17T23:33:19.325Z,75.30
2023-01-17T23:36:17.134Z,74.10
2023-01-17T23:39:14.936Z,74.80
2023-01-17T23:42:27.901Z,75.00
2023-01-17T23:45:25.876Z,75.90
2023-01-17T23:48:26.680Z,76.20
2023-01-17T23:51:24.578Z,77.40
2023-01-17T23:54:22.287Z,77.30
2023-01-17T23:57:20.328Z,77.50
